createdAt,value
2022-07-27T00:02:29.431Z,100.00
2022-07-27T00:04:59.070Z,100.00
2022-07-27T00:07:28.614Z,100.00
2022-07-27T00:09:58.293Z,100.00
2022-07-27T00:12:29.247Z,100.00
2022-07-27T00:14:59.310Z,100.00
2022-07-27T00:17:29.063Z,100.00
2022-07-27T00:19:58.761Z,100.00
2022-07-27T00:22:28.493Z,100.00
2022-07-27T00:24:58.075Z,100.00
2022-07-27T00:27:29.009Z,100.00
2022-07-27T00:29:58.613Z,100.00
2022-07-27T00:32:28.185Z,100.00
2022-07-27T00:34:57.688Z,100.00
2022-07-27T00:37:27.519Z,100.00
2022-07-27T00:39:57.026Z,100.00
2022-07-27T00:42:28.124Z,100.00
2022-07-27T00:44:59.436Z,100.00
2022-07-27T00:47:29.113Z,100.00
2022-07-27T00:49:59.877Z,100.00
2022-07-27T00:52:31.187Z,100.00
2022-07-27T00:55:01.194Z,100.00
2022-07-27T00:57:31.097Z,100.00
2022-07-27T01:00:02.165Z,100.00
2022-07-27T01:02:31.965Z,100.00
2022-07-27T01:05:01.964Z,100.00
2022-07-27T01:07:32.277Z,100.00
2022-07-27T01:10:01.966Z,100.00
2022-07-27T01:12:33.175Z,100.00
2022-07-27T01:15:04.967Z,100.00
2022-07-27T01:17:34.707Z,100.00
2022-07-27T01:20:06.505Z,100.00
2022-07-27T01:22:37.508Z,100.00
2022-07-27T01:25:08.554Z,100.00
2022-07-27T01:27:38.225Z,100.00
2022-07-27T01:30:26.412Z,100.00
2022-07-27T01:33:02.770Z,100.00
2022-07-27T01:35:32.874Z,100.00
2022-07-27T01:38:04.722Z,100.00
2022-07-27T01:40:36.634Z,100.00
2022-07-27T01:43:06.623Z,100.00
2022-07-27T01:45:36.256Z,100.00
2022-07-27T01:48:06.664Z,100.00
2022-07-27T01:50:36.323Z,100.00
2022-07-27T01:53:09.246Z,100.00
2022-07-27T01:55:40.460Z,100.00
2022-07-27T01:58:10.789Z,100.00
2022-07-27T02:00:40.654Z,100.00
2022-07-27T02:03:12.593Z,100.00
2022-07-27T02:05:42.320Z,100.00
2022-07-27T02:08:13.617Z,100.00
2022-07-27T02:10:58.343Z,100.00
2022-07-27T02:13:28.323Z,100.00
2022-07-27T02:15:59.113Z,100.00
2022-07-27T02:18:35.909Z,100.00
2022-07-27T02:21:07.586Z,100.00
2022-07-27T02:23:40.437Z,100.00
2022-07-27T02:26:10.657Z,100.00
2022-07-27T02:28:40.129Z,100.00
2022-07-27T02:31:09.729Z,100.00
2022-07-27T02:33:39.311Z,100.00
2022-07-27T02:36:09.028Z,100.00
2022-07-27T02:38:39.974Z,100.00
2022-07-27T02:41:09.618Z,100.00
2022-07-27T02:43:39.174Z,100.00
2022-07-27T02:46:08.839Z,100.00
2022-07-27T02:48:38.536Z,100.00
2022-07-27T02:51:08.239Z,100.00
2022-07-27T02:53:39.152Z,100.00
2022-07-27T02:56:08.959Z,100.00
2022-07-27T02:58:38.567Z,100.00
2022-07-27T03:01:09.155Z,100.00
2022-07-27T03:03:39.557Z,100.00
2022-07-27T03:06:11.753Z,100.00
2022-07-27T03:08:42.667Z,100.00
2022-07-27T03:11:12.250Z,100.00
2022-07-27T03:13:42.144Z,100.00
2022-07-27T03:16:11.768Z,100.00
2022-07-27T03:18:41.426Z,100.00
2022-07-27T03:21:10.986Z,100.00
2022-07-27T03:23:42.513Z,100.00
2022-07-27T03:26:12.265Z,100.00
2022-07-27T03:28:41.912Z,100.00
2022-07-27T03:31:11.599Z,100.00
2022-07-27T03:33:41.192Z,100.00
2022-07-27T03:36:10.722Z,100.00
2022-07-27T03:38:40.290Z,100.00
2022-07-27T03:41:11.338Z,100.00
2022-07-27T03:43:40.971Z,100.00
2022-07-27T03:46:12.568Z,100.00
2022-07-27T03:48:42.197Z,100.00
2022-07-27T03:51:11.782Z,100.00
2022-07-27T03:53:41.350Z,100.00
2022-07-27T03:56:12.034Z,100.00
2022-07-27T03:58:42.929Z,100.00
2022-07-27T04:01:12.475Z,100.00
2022-07-27T04:03:44.376Z,100.00
2022-07-27T04:06:13.943Z,100.00
2022-07-27T04:08:43.333Z,100.00
2022-07-27T04:11:14.296Z,100.00
2022-07-27T04:13:50.099Z,100.00
2022-07-27T04:16:19.779Z,100.00
2022-07-27T04:18:49.550Z,100.00
2022-07-27T04:21:19.077Z,100.00
2022-07-27T04:23:48.607Z,100.00
2022-07-27T04:26:19.489Z,100.00
2022-07-27T04:28:48.919Z,100.00
2022-07-27T04:31:18.427Z,100.00
2022-07-27T04:33:48.104Z,100.00
2022-07-27T04:36:17.979Z,100.00
2022-07-27T04:38:47.395Z,100.00
2022-07-27T04:41:18.244Z,100.00
2022-07-27T04:43:47.714Z,100.00
2022-07-27T04:46:17.291Z,100.00
2022-07-27T04:48:48.974Z,100.00
2022-07-27T04:51:19.687Z,100.00
2022-07-27T04:53:53.503Z,100.00
2022-07-27T04:56:28.908Z,100.00
2022-07-27T04:58:58.300Z,100.00
2022-07-27T05:01:33.102Z,100.00
2022-07-27T05:04:05.497Z,100.00
2022-07-27T05:07:01.898Z,100.00
2022-07-27T05:09:31.295Z,100.00
2022-07-27T05:12:02.614Z,100.00
2022-07-27T05:14:32.878Z,100.00
2022-07-27T05:17:02.424Z,100.00
2022-07-27T05:19:40.118Z,100.00
2022-07-27T05:22:12.281Z,100.00
2022-07-27T05:24:43.725Z,100.00
2022-07-27T05:27:14.489Z,100.00
2022-07-27T05:30:41.771Z,100.00
2022-07-27T05:32:54.693Z,100.00
2022-07-27T05:35:24.102Z,100.00
2022-07-27T05:37:53.533Z,100.00
2022-07-27T05:40:24.039Z,100.00
2022-07-27T05:42:54.819Z,100.00
2022-07-27T05:45:26.161Z,100.00
2022-07-27T05:47:55.803Z,100.00
2022-07-27T05:50:29.314Z,100.00
2022-07-27T05:52:58.822Z,100.00
2022-07-27T05:55:28.640Z,100.00
2022-07-27T05:57:59.457Z,100.00
2022-07-27T06:00:30.781Z,100.00
2022-07-27T06:03:01.633Z,100.00
2022-07-27T06:05:32.427Z,100.00
2022-07-27T06:08:28.309Z,100.00
2022-07-27T06:10:57.853Z,100.00
2022-07-27T06:13:31.539Z,100.00
2022-07-27T06:16:02.487Z,100.00
2022-07-27T06:18:32.348Z,100.00
2022-07-27T06:21:03.024Z,100.00
2022-07-27T06:23:32.825Z,100.00
2022-07-27T06:26:02.580Z,100.00
2022-07-27T06:28:34.612Z,100.00
2022-07-27T06:31:04.272Z,100.00
2022-07-27T06:33:36.385Z,100.00
2022-07-27T06:36:08.382Z,100.00
2022-07-27T06:38:38.139Z,100.00
2022-07-27T06:41:07.639Z,100.00
2022-07-27T06:43:38.745Z,100.00
2022-07-27T06:46:12.548Z,100.00
2022-07-27T06:48:42.972Z,100.00
2022-07-27T06:51:12.655Z,100.00
2022-07-27T06:53:42.166Z,100.00
2022-07-27T06:56:11.951Z,100.00
2022-07-27T06:58:42.930Z,100.00
2022-07-27T07:01:12.570Z,100.00
2022-07-27T07:03:42.187Z,100.00
2022-07-27T07:06:12.070Z,100.00
2022-07-27T07:08:41.733Z,100.00
2022-07-27T07:11:12.342Z,100.00
2022-07-27T07:13:45.051Z,100.00
2022-07-27T07:16:14.839Z,100.00
2022-07-27T07:18:47.731Z,100.00
2022-07-27T07:21:19.581Z,100.00
2022-07-27T07:23:48.891Z,100.00
2022-07-27T07:26:18.181Z,100.00
2022-07-27T07:28:48.740Z,100.00
2022-07-27T07:31:19.832Z,100.00
2022-07-27T07:33:49.107Z,100.00
2022-07-27T07:36:18.710Z,100.00
2022-07-27T07:38:47.974Z,100.00
2022-07-27T07:41:17.367Z,100.00
2022-07-27T07:43:48.971Z,100.00
2022-07-27T07:46:18.592Z,100.00
2022-07-27T07:48:47.929Z,100.00
2022-07-27T07:51:17.447Z,100.00
2022-07-27T07:53:46.781Z,100.00
2022-07-27T07:56:16.411Z,100.00
2022-07-27T07:58:45.632Z,100.00
2022-07-27T08:01:16.312Z,100.00
2022-07-27T08:03:50.855Z,100.00
2022-07-27T08:06:20.723Z,100.00
2022-07-27T08:08:52.017Z,100.00
2022-07-27T08:11:21.323Z,100.00
2022-07-27T08:13:50.544Z,100.00
2022-07-27T08:16:21.251Z,100.00
2022-07-27T08:18:50.588Z,100.00
2022-07-27T08:21:20.022Z,100.00
2022-07-27T08:23:49.280Z,100.00
2022-07-27T08:26:18.736Z,100.00
2022-07-27T08:28:47.935Z,100.00
2022-07-27T08:31:24.562Z,100.00
2022-07-27T08:33:56.037Z,100.00
2022-07-27T08:36:25.216Z,100.00
2022-07-27T08:38:54.442Z,100.00
2022-07-27T08:41:26.281Z,100.00
2022-07-27T08:43:55.889Z,100.00
2022-07-27T08:46:28.218Z,100.00
2022-07-27T08:48:57.890Z,100.00
2022-07-27T08:51:27.084Z,100.00
2022-07-27T08:53:57.128Z,100.00
2022-07-27T08:56:26.672Z,100.00
2022-07-27T08:58:55.982Z,90.03
2022-07-27T09:01:26.584Z,84.19
2022-07-27T09:03:55.895Z,89.99
2022-07-27T09:06:52.885Z,91.44
2022-07-27T09:09:23.696Z,94.49
2022-07-27T09:12:08.300Z,92.45
2022-07-27T09:14:40.881Z,97.54
2022-07-27T09:20:20.052Z,98.39
2022-07-27T09:22:52.425Z,94.45
2022-07-27T09:25:44.876Z,97.31
2022-07-27T09:28:13.063Z,97.44
2022-07-27T09:30:43.794Z,79.57
2022-07-27T09:33:17.304Z,85.38
2022-07-27T09:35:59.098Z,88.03
2022-07-27T09:38:28.281Z,92.91
2022-07-27T09:41:00.879Z,82.29
2022-07-27T09:46:33.225Z,73.52
2022-07-27T09:49:05.183Z,74.09
2022-07-27T09:52:02.246Z,77.34
2022-07-27T09:54:47.103Z,78.96
2022-07-27T09:57:17.876Z,78.59
2022-07-27T09:59:47.433Z,81.21
2022-07-27T10:02:16.905Z,72.84
2022-07-27T10:06:01.179Z,70.39
2022-07-27T10:08:32.793Z,73.81
2022-07-27T10:11:04.130Z,74.40
2022-07-27T10:13:43.808Z,72.48
2022-07-27T10:16:17.489Z,75.65
2022-07-27T10:19:01.096Z,72.04
2022-07-27T10:21:35.146Z,66.09
2022-07-27T10:24:09.561Z,59.01
2022-07-27T10:26:41.301Z,58.67
2022-07-27T10:29:19.248Z,64.85
2022-07-27T10:32:00.381Z,66.29
2022-07-27T10:34:38.873Z,66.58
2022-07-27T10:37:13.148Z,69.81
2022-07-27T10:39:45.781Z,70.87
2022-07-27T10:42:28.619Z,69.19
2022-07-27T10:45:02.392Z,70.56
2022-07-27T10:47:35.343Z,73.07
2022-07-27T10:50:31.222Z,72.74
2022-07-27T10:53:11.177Z,74.24
2022-07-27T10:55:48.651Z,69.64
2022-07-27T10:58:47.683Z,59.79
2022-07-27T11:01:19.080Z,58.44
2022-07-27T11:03:52.607Z,65.13
2022-07-27T11:06:41.872Z,63.92
2022-07-27T11:10:02.889Z,62.98
2022-07-27T11:12:10.445Z,60.20
2022-07-27T11:14:50.635Z,62.60
2022-07-27T11:20:13.353Z,57.23
2022-07-27T11:23:26.666Z,56.83
2022-07-27T11:25:32.821Z,55.53
2022-07-27T11:28:07.199Z,61.89
2022-07-27T11:30:37.085Z,60.76
2022-07-27T11:33:07.233Z,63.25
2022-07-27T11:35:36.709Z,63.08
2022-07-27T11:38:07.687Z,65.20
2022-07-27T11:40:57.329Z,68.63
2022-07-27T11:43:36.865Z,67.77
2022-07-27T11:46:15.099Z,67.15
2022-07-27T11:49:09.339Z,65.82
2022-07-27T11:51:47.992Z,68.60
2022-07-27T11:54:22.258Z,70.39
2022-07-27T11:56:54.455Z,64.79
2022-07-27T11:59:27.134Z,68.57
2022-07-27T12:01:59.708Z,66.52
2022-07-27T12:04:30.919Z,67.47
2022-07-27T12:07:08.047Z,71.30
2022-07-27T12:09:40.164Z,71.81
2022-07-27T12:12:15.169Z,71.45
2022-07-27T12:14:48.745Z,67.22
2022-07-27T12:17:29.620Z,66.18
2022-07-27T12:20:05.446Z,61.99
2022-07-27T12:22:38.688Z,60.59
2022-07-27T12:25:16.198Z,60.50
2022-07-27T12:27:57.346Z,54.49
2022-07-27T12:30:33.671Z,59.13
2022-07-27T12:33:05.575Z,53.45
2022-07-27T12:35:46.543Z,51.31
2022-07-27T12:38:16.353Z,52.45
2022-07-27T12:40:48.280Z,55.50
2022-07-27T12:43:20.262Z,49.79
2022-07-27T12:45:52.697Z,49.44
2022-07-27T12:48:26.351Z,50.36
2022-07-27T12:51:02.408Z,55.13
2022-07-27T12:53:32.787Z,56.68
2022-07-27T12:56:06.050Z,60.99
2022-07-27T12:58:37.156Z,57.66
2022-07-27T13:01:07.921Z,56.12
2022-07-27T13:03:37.271Z,59.47
2022-07-27T13:06:12.469Z,58.82
2022-07-27T13:08:42.346Z,52.86
2022-07-27T13:11:11.677Z,58.76
2022-07-27T13:13:43.199Z,56.20
2022-07-27T13:16:13.820Z,58.63
2022-07-27T13:18:43.103Z,54.81
2022-07-27T13:21:12.277Z,52.10
2022-07-27T13:23:41.497Z,54.27
2022-07-27T13:26:10.693Z,53.28
2022-07-27T13:28:40.238Z,51.84
2022-07-27T13:31:09.674Z,53.14
2022-07-27T13:33:40.380Z,54.18
2022-07-27T13:36:09.818Z,55.66
2022-07-27T13:38:39.085Z,55.40
2022-07-27T13:41:09.559Z,56.67
2022-07-27T13:43:38.850Z,58.57
2022-07-27T13:46:10.361Z,60.18
2022-07-27T13:48:41.159Z,59.91
2022-07-27T13:51:10.392Z,59.87
2022-07-27T13:53:39.624Z,59.32
2022-07-27T13:56:08.848Z,60.51
2022-07-27T13:58:40.887Z,60.41
2022-07-27T14:01:10.315Z,59.67
2022-07-27T14:03:41.036Z,56.51
2022-07-27T14:06:10.345Z,57.18
2022-07-27T14:08:40.921Z,55.94
2022-07-27T14:11:10.142Z,54.27
2022-07-27T14:13:39.834Z,57.41
2022-07-27T14:16:10.065Z,58.29
2022-07-27T14:18:40.817Z,59.75
2022-07-27T14:21:10.602Z,61.46
2022-07-27T14:23:39.866Z,57.64
2022-07-27T14:26:10.390Z,58.43
2022-07-27T14:28:42.920Z,59.42
2022-07-27T14:31:13.232Z,59.10
2022-07-27T14:33:43.928Z,55.85
2022-07-27T14:36:13.308Z,53.80
2022-07-27T14:38:44.189Z,54.95
2022-07-27T14:41:13.404Z,55.40
2022-07-27T14:43:42.606Z,56.28
2022-07-27T14:46:11.849Z,64.44
2022-07-27T14:49:11.018Z,61.37
2022-07-27T14:51:31.801Z,54.91
2022-07-27T14:54:01.063Z,54.25
2022-07-27T14:56:30.488Z,57.44
2022-07-27T14:58:59.743Z,52.18
2022-07-27T15:01:29.148Z,52.93
2022-07-27T15:03:58.449Z,57.65
2022-07-27T15:06:27.854Z,54.49
2022-07-27T15:08:58.448Z,51.51
2022-07-27T15:11:27.733Z,55.82
2022-07-27T15:13:57.681Z,57.27
2022-07-27T15:16:27.053Z,61.75
2022-07-27T15:18:56.360Z,52.58
2022-07-27T15:21:25.615Z,52.29
2022-07-27T15:23:55.058Z,56.16
2022-07-27T15:26:25.690Z,47.92
2022-07-27T15:28:55.041Z,54.79
2022-07-27T15:31:24.440Z,46.61
2022-07-27T15:33:53.792Z,47.59
2022-07-27T15:36:32.101Z,46.64
2022-07-27T15:39:03.341Z,46.24
2022-07-27T15:41:37.146Z,48.58
2022-07-27T15:44:07.068Z,45.41
2022-07-27T15:46:36.325Z,47.21
2022-07-27T15:49:05.926Z,45.69
2022-07-27T15:51:35.295Z,46.59
2022-07-27T15:54:04.778Z,48.08
2022-07-27T15:56:35.471Z,47.47
2022-07-27T15:59:05.265Z,47.12
2022-07-27T16:01:35.330Z,46.66
2022-07-27T16:04:06.456Z,45.74
2022-07-27T16:06:39.349Z,48.24
2022-07-27T16:09:10.365Z,48.03
2022-07-27T16:11:41.821Z,48.92
2022-07-27T16:14:11.187Z,46.77
2022-07-27T16:16:40.619Z,47.83
2022-07-27T16:19:14.125Z,50.27
2022-07-27T16:21:54.118Z,47.85
2022-07-27T16:24:26.793Z,48.86
2022-07-27T16:26:57.626Z,50.95
2022-07-27T16:29:28.083Z,50.40
2022-07-27T16:31:58.964Z,50.35
2022-07-27T16:34:30.769Z,51.13
2022-07-27T16:37:00.666Z,51.89
2022-07-27T16:39:30.025Z,52.03
2022-07-27T16:42:00.660Z,51.96
2022-07-27T16:44:29.934Z,52.99
2022-07-27T16:46:59.272Z,54.44
2022-07-27T16:49:36.266Z,52.76
2022-07-27T16:52:06.999Z,53.85
2022-07-27T16:54:39.694Z,54.88
2022-07-27T16:57:11.438Z,53.43
2022-07-27T16:59:41.628Z,53.29
2022-07-27T17:02:11.313Z,56.12
2022-07-27T17:04:40.721Z,51.89
2022-07-27T17:07:12.675Z,53.31
2022-07-27T17:09:42.597Z,53.68
2022-07-27T17:12:17.165Z,54.61
2022-07-27T17:14:47.261Z,55.54
2022-07-27T17:17:16.741Z,57.85
2022-07-27T17:19:46.105Z,58.46
2022-07-27T17:22:15.344Z,56.38
2022-07-27T17:24:44.691Z,58.21
2022-07-27T17:27:15.268Z,58.20
2022-07-27T17:29:44.670Z,58.58
2022-07-27T17:32:14.021Z,56.71
2022-07-27T17:34:45.543Z,56.07
2022-07-27T17:37:15.245Z,57.18
2022-07-27T17:39:44.749Z,58.68
2022-07-27T17:42:15.354Z,61.19
2022-07-27T17:44:44.730Z,61.13
2022-07-27T17:47:14.090Z,61.38
2022-07-27T17:49:43.791Z,62.09
2022-07-27T17:52:13.244Z,62.55
2022-07-27T17:54:42.696Z,63.79
2022-07-27T17:57:12.046Z,64.22
2022-07-27T17:59:43.038Z,65.30
2022-07-27T18:02:13.367Z,66.78
2022-07-27T18:04:42.770Z,66.81
2022-07-27T18:07:12.100Z,66.42
2022-07-27T18:09:41.452Z,67.09
2022-07-27T18:12:10.820Z,68.20
2022-07-27T18:15:00.023Z,69.29
2022-07-27T18:17:30.650Z,70.37
2022-07-27T18:19:59.904Z,71.17
2022-07-27T18:22:29.082Z,73.05
2022-07-27T18:24:58.421Z,75.04
2022-07-27T18:27:28.901Z,75.84
2022-07-27T18:29:58.190Z,78.36
2022-07-27T18:32:27.462Z,80.26
2022-07-27T18:34:58.233Z,81.23
2022-07-27T18:37:27.581Z,84.49
2022-07-27T18:39:56.928Z,87.33
2022-07-27T18:42:26.173Z,90.63
2022-07-27T18:44:55.333Z,93.45
2022-07-27T18:47:24.600Z,96.15
2022-07-27T18:49:53.893Z,98.07
2022-07-27T18:52:24.561Z,100.00
2022-07-27T18:54:53.828Z,100.00
2022-07-27T18:57:23.083Z,100.00
2022-07-27T18:59:53.399Z,100.00
2022-07-27T19:02:23.425Z,100.00
2022-07-27T19:04:53.876Z,100.00
2022-07-27T19:07:25.780Z,100.00
2022-07-27T19:09:57.815Z,100.00
2022-07-27T19:12:27.418Z,100.00
2022-07-27T19:14:57.985Z,100.00
2022-07-27T19:17:27.358Z,100.00
2022-07-27T19:19:56.725Z,100.00
2022-07-27T19:22:27.828Z,100.00
2022-07-27T19:24:57.157Z,100.00
2022-07-27T19:27:26.481Z,100.00
2022-07-27T19:29:55.960Z,100.00
2022-07-27T19:32:26.743Z,100.00
2022-07-27T19:34:56.133Z,100.00
2022-07-27T19:37:29.714Z,100.00
2022-07-27T19:40:14.343Z,100.00
2022-07-27T19:42:48.398Z,100.00
2022-07-27T19:45:17.725Z,100.00
2022-07-27T19:47:46.970Z,100.00
2022-07-27T19:50:16.371Z,100.00
2022-07-27T19:52:47.101Z,100.00
2022-07-27T19:55:16.909Z,100.00
2022-07-27T19:57:46.343Z,100.00
2022-07-27T20:00:17.131Z,100.00
2022-07-27T20:02:49.448Z,100.00
2022-07-27T20:05:18.899Z,100.00
2022-07-27T20:07:50.766Z,100.00
2022-07-27T20:10:22.505Z,100.00
2022-07-27T20:12:52.118Z,100.00
2022-07-27T20:15:22.777Z,100.00
2022-07-27T20:17:52.401Z,100.00
2022-07-27T20:20:21.795Z,100.00
2022-07-27T20:22:52.623Z,100.00
2022-07-27T20:25:23.309Z,100.00
2022-07-27T20:27:53.904Z,100.00
2022-07-27T20:30:23.343Z,100.00
2022-07-27T20:32:52.909Z,100.00
2022-07-27T20:35:22.314Z,100.00
2022-07-27T20:37:57.913Z,100.00
2022-07-27T20:40:27.566Z,100.00
2022-07-27T20:42:56.927Z,100.00
2022-07-27T20:45:27.246Z,100.00
2022-07-27T20:47:57.598Z,100.00
2022-07-27T20:50:26.976Z,100.00
2022-07-27T20:52:58.089Z,100.00
2022-07-27T20:55:28.566Z,100.00
2022-07-27T20:57:57.808Z,100.00
2022-07-27T21:00:29.318Z,100.00
2022-07-27T21:02:58.777Z,100.00
2022-07-27T21:05:28.374Z,100.00
2022-07-27T21:07:59.025Z,100.00
2022-07-27T21:10:28.320Z,100.00
2022-07-27T21:12:58.477Z,100.00
2022-07-27T21:15:33.802Z,100.00
2022-07-27T21:18:03.974Z,100.00
2022-07-27T21:20:34.331Z,100.00
2022-07-27T21:23:22.600Z,100.00
2022-07-27T21:25:52.342Z,100.00
2022-07-27T21:28:24.722Z,100.00
2022-07-27T21:30:54.272Z,100.00
2022-07-27T21:33:23.581Z,100.00
2022-07-27T21:35:52.865Z,100.00
2022-07-27T21:38:23.449Z,100.00
2022-07-27T21:40:52.769Z,100.00
2022-07-27T21:43:21.941Z,100.00
2022-07-27T21:45:52.045Z,100.00
2022-07-27T21:48:21.395Z,100.00
2022-07-27T21:50:50.633Z,100.00
2022-07-27T21:53:19.889Z,100.00
2022-07-27T21:55:58.117Z,100.00
2022-07-27T21:58:28.608Z,100.00
2022-07-27T22:00:57.866Z,100.00
2022-07-27T22:03:27.130Z,100.00
2022-07-27T22:05:56.771Z,100.00
2022-07-27T22:08:26.018Z,100.00
2022-07-27T22:10:57.958Z,100.00
2022-07-27T22:13:27.632Z,100.00
2022-07-27T22:15:56.904Z,100.00
2022-07-27T22:18:26.219Z,100.00
2022-07-27T22:20:55.895Z,100.00
2022-07-27T22:23:25.787Z,100.00
2022-07-27T22:25:55.428Z,100.00
2022-07-27T22:28:28.756Z,100.00
2022-07-27T22:31:16.481Z,100.00
2022-07-27T22:33:47.297Z,100.00
2022-07-27T22:36:16.684Z,100.00
2022-07-27T22:38:46.308Z,100.00
2022-07-27T22:41:15.956Z,100.00
2022-07-27T22:43:46.588Z,100.00
2022-07-27T22:46:19.851Z,100.00
2022-07-27T22:48:51.780Z,100.00
2022-07-27T22:51:21.823Z,100.00
2022-07-27T22:53:52.590Z,100.00
2022-07-27T22:56:22.198Z,100.00
2022-07-27T22:58:52.967Z,100.00
2022-07-27T23:01:45.457Z,100.00
2022-07-27T23:04:12.145Z,100.00
2022-07-27T23:06:41.815Z,100.00
2022-07-27T23:09:11.217Z,100.00
2022-07-27T23:11:40.525Z,100.00
2022-07-27T23:14:11.844Z,100.00
2022-07-27T23:16:41.830Z,100.00
2022-07-27T23:20:06.344Z,100.00
2022-07-27T23:22:35.773Z,100.00
2022-07-27T23:25:07.174Z,100.00
2022-07-27T23:27:37.020Z,100.00
2022-07-27T23:30:10.786Z,100.00
2022-07-27T23:32:40.371Z,100.00
2022-07-27T23:35:11.080Z,100.00
2022-07-27T23:37:40.858Z,100.00
2022-07-27T23:40:12.630Z,100.00
2022-07-27T23:42:42.202Z,100.00
2022-07-27T23:45:13.752Z,100.00
2022-07-27T23:48:02.851Z,100.00
2022-07-27T23:50:32.368Z,100.00
2022-07-27T23:53:01.927Z,100.00
2022-07-27T23:55:31.622Z,100.00
2022-07-27T23:58:01.141Z,100.00
